Hannover, Germany

8:57 AM CEST on September 02, 2014 (GMT +0200)
Hannover | Change Station
CLOSE
Current Station
Personal Weather Station
Location: Wedemark,
Elevation: 210 ft
Nearby Weather Stations

Elev 210 ft 52.52 °N, 9.75 °E | Updated 57 minutes ago

Rain
Rain
59.0 °F
Feels Like 59.0 °F
N
0.9
Wind Variable Wind from NNW
Gusts 4.0 mph

Today
High -- | Low -- °F
--% Chance of Precip.
Yesterday
High -- | Low -- °F
Precip. -- in
6:33 AM 8:07 PM
Waxing Crescent, 48% visible
Pressure 30.12 in
Visibility -9999.0 miles
Clouds Mostly Cloudy 400 ft
Mostly Cloudy 700 ft
Dew Point 58 °F
Humidity 96%
Rainfall 0.09 in
Snow Depth Not available.
UV 0.0 out of 12
Pollen Not available.
Air Quality Not available.
Flu Activity Not available.
METAR EDDV 020650Z 36004KT 320V020 3800 BR BKN004 BKN007 15/15 Q1020 BECMG 5000 SCT005 BKN015

More Conditions Fewer Conditions

Pressure 30.12 in
Visibility -9999.0 miles
Clouds Mostly Cloudy 400 ft
Mostly Cloudy 700 ft
Dew Point 58 °F
Humidity 96%
Rainfall 0.09 in
Snow Depth Not available.
UV 0.0 out of 12
Pollen Not available.
Air Quality Not available.
Flu Activity Not available.
METAR EDDV 020650Z 36004KT 320V020 3800 BR BKN004 BKN007 15/15 Q1020 BECMG 5000 SCT005 BKN015

More Conditions Fewer Conditions

10-Day Weather Forecast

Almanac

Astronomy

Sep. 02, 2014 Rise Set
Actual Time 6:33 AM CEST 8:07 PM CEST
Civil Twilight 5:57 AM CEST 8:42 PM CEST
Nautical Twilight 5:13 AM CEST 9:26 PM CEST
Astronomical Twilight 4:24 AM CEST 10:14 PM CEST
Moon 2:56 PM CEST 11:50 PM CEST
Length of Visible Light 14h 45m
Length of Day
13h 33m
Tomorrow will be 3m 59s shorter.
Waxing Crescent, 48% of the Moon is Illuminated
Today
Waxing Crescent
Sep 2
First Quarter
Sep 8
Full
Sep 15
Last Quarter
Sep 24
New

Yesterday's Extremes

Country Highs Country Lows

Community

WunderPhotos

Upload Photos

1,749,589 photos uploaded!

WunderBlogs® & News

Nearby

Snow Depth

Not available.

Earthquake Activity

City Distance Mag. Time & Date
No recent earthquake activity has been reported nearby.
Minimum magnitude displayed is 2.5.

Coastal Water Temperatures

Place Temperature
No Stations Reporting

Nearby Weather Stations